sensor_id;sensor_type;location;lat;lon;timestamp;pressure;altitude;pressure_sealevel;temperature;humidity
77212;BME280;66206;0.000;0.000;2023-06-14T00:00:25;97492.91;;;27.70;18.49
77212;BME280;66206;0.000;0.000;2023-06-14T00:02:51;97493.59;;;27.68;18.39
77212;BME280;66206;0.000;0.000;2023-06-14T00:05:18;97492.21;;;27.69;18.42
77212;BME280;66206;0.000;0.000;2023-06-14T00:07:44;97490.77;;;27.77;18.43
77212;BME280;66206;0.000;0.000;2023-06-14T00:10:11;97487.38;;;27.65;18.47
77212;BME280;66206;0.000;0.000;2023-06-14T00:12:38;97491.19;;;27.71;18.47
77212;BME280;66206;0.000;0.000;2023-06-14T00:15:05;97490.73;;;27.69;18.50
77212;BME280;66206;0.000;0.000;2023-06-14T00:17:32;97488.51;;;27.72;18.55
77212;BME280;66206;0.000;0.000;2023-06-14T00:19:59;97487.03;;;27.72;18.59
77212;BME280;66206;0.000;0.000;2023-06-14T00:22:25;97488.24;;;27.46;18.89
77212;BME280;66206;0.000;0.000;2023-06-14T00:24:52;97483.71;;;27.25;19.05
77212;BME280;66206;0.000;0.000;2023-06-14T00:27:18;97482.50;;;27.34;18.98
77212;BME280;66206;0.000;0.000;2023-06-14T00:29:45;97480.59;;;27.06;19.18
77212;BME280;66206;0.000;0.000;2023-06-14T00:32:12;97480.07;;;27.05;19.30
77212;BME280;66206;0.000;0.000;2023-06-14T00:34:38;97478.19;;;27.16;19.27
77212;BME280;66206;0.000;0.000;2023-06-14T00:37:05;97479.13;;;27.11;19.26
77212;BME280;66206;0.000;0.000;2023-06-14T00:39:31;97476.01;;;27.15;19.31
77212;BME280;66206;0.000;0.000;2023-06-14T00:41:58;97474.61;;;27.00;19.34
77212;BME280;66206;0.000;0.000;2023-06-14T00:44:25;97474.70;;;27.10;19.28
77212;BME280;66206;0.000;0.000;2023-06-14T00:46:51;97475.20;;;27.38;19.12
77212;BME280;66206;0.000;0.000;2023-06-14T00:49:18;97474.69;;;27.60;19.00
77212;BME280;66206;0.000;0.000;2023-06-14T00:51:45;97478.73;;;27.53;19.05
77212;BME280;66206;0.000;0.000;2023-06-14T00:54:12;97479.26;;;27.50;19.06
77212;BME280;66206;0.000;0.000;2023-06-14T00:56:39;97481.51;;;27.52;19.00
77212;BME280;66206;0.000;0.000;2023-06-14T00:59:05;97484.31;;;27.45;19.04
77212;BME280;66206;0.000;0.000;2023-06-14T01:01:32;97488.43;;;27.54;19.04
77212;BME280;66206;0.000;0.000;2023-06-14T01:03:59;97490.83;;;27.44;19.02
77212;BME280;66206;0.000;0.000;2023-06-14T01:06:28;97488.24;;;27.23;19.03
77212;BME280;66206;0.000;0.000;2023-06-14T01:08:51;97489.58;;;27.49;18.93
77212;BME280;66206;0.000;0.000;2023-06-14T01:11:20;97485.58;;;27.45;19.01
77212;BME280;66206;0.000;0.000;2023-06-14T01:13:43;97489.93;;;27.58;19.09
77212;BME280;66206;0.000;0.000;2023-06-14T01:16:12;97489.52;;;27.42;19.14
77212;BME280;66206;0.000;0.000;2023-06-14T01:18:38;97488.90;;;27.29;19.25
77212;BME280;66206;0.000;0.000;2023-06-14T01:21:05;97486.79;;;27.26;19.35
77212;BME280;66206;0.000;0.000;2023-06-14T01:23:32;97485.02;;;27.34;19.37
77212;BME280;66206;0.000;0.000;2023-06-14T01:25:59;97485.10;;;27.30;19.35
77212;BME280;66206;0.000;0.000;2023-06-14T01:28:25;97485.28;;;27.46;19.31
77212;BME280;66206;0.000;0.000;2023-06-14T01:30:53;97485.87;;;27.31;19.53
77212;BME280;66206;0.000;0.000;2023-06-14T01:33:21;97488.23;;;27.27;19.52
77212;BME280;66206;0.000;0.000;2023-06-14T01:35:49;97485.82;;;27.07;19.63
77212;BME280;66206;0.000;0.000;2023-06-14T01:38:17;97486.20;;;27.19;19.69
77212;BME280;66206;0.000;0.000;2023-06-14T01:40:45;97488.29;;;27.26;19.62
77212;BME280;66206;0.000;0.000;2023-06-14T01:43:11;97487.47;;;27.11;19.64
77212;BME280;66206;0.000;0.000;2023-06-14T01:45:39;97492.32;;;26.99;19.76
77212;BME280;66206;0.000;0.000;2023-06-14T01:48:06;97490.32;;;27.15;19.67
77212;BME280;66206;0.000;0.000;2023-06-14T01:50:33;97491.16;;;26.83;19.91
77212;BME280;66206;0.000;0.000;2023-06-14T01:53:00;97488.33;;;27.25;19.64
77212;BME280;66206;0.000;0.000;2023-06-14T01:55:26;97494.36;;;27.06;19.68
77212;BME280;66206;0.000;0.000;2023-06-14T01:57:53;97499.66;;;26.93;19.82
77212;BME280;66206;0.000;0.000;2023-06-14T02:00:20;97499.00;;;26.94;19.84
77212;BME280;66206;0.000;0.000;2023-06-14T02:02:47;97495.44;;;27.11;19.69
77212;BME280;66206;0.000;0.000;2023-06-14T02:05:14;97502.32;;;26.89;19.84
77212;BME280;66206;0.000;0.000;2023-06-14T02:07:40;97501.81;;;26.90;19.82
77212;BME280;66206;0.000;0.000;2023-06-14T02:10:07;97497.83;;;27.07;19.77
77212;BME280;66206;0.000;0.000;2023-06-14T02:12:33;97495.89;;;27.09;19.82
77212;BME280;66206;0.000;0.000;2023-06-14T02:15:00;97497.26;;;26.86;19.83
77212;BME280;66206;0.000;0.000;2023-06-14T02:17:27;97488.46;;;27.20;19.70
77212;BME280;66206;0.000;0.000;2023-06-14T02:19:53;97489.61;;;26.89;19.91
77212;BME280;66206;0.000;0.000;2023-06-14T02:22:20;97490.23;;;26.87;19.87
77212;BME280;66206;0.000;0.000;2023-06-14T02:24:46;97486.73;;;27.04;19.83
77212;BME280;66206;0.000;0.000;2023-06-14T02:27:13;97493.42;;;26.74;19.97
77212;BME280;66206;0.000;0.000;2023-06-14T02:29:40;97495.89;;;26.90;19.86
77212;BME280;66206;0.000;0.000;2023-06-14T02:32:06;97494.74;;;26.96;19.85
77212;BME280;66206;0.000;0.000;2023-06-14T02:34:33;97487.94;;;26.93;19.78
77212;BME280;66206;0.000;0.000;2023-06-14T02:37:00;97487.86;;;26.88;19.85
77212;BME280;66206;0.000;0.000;2023-06-14T02:39:26;97487.52;;;26.55;20.02
77212;BME280;66206;0.000;0.000;2023-06-14T02:41:53;97488.76;;;27.16;19.58
77212;BME280;66206;0.000;0.000;2023-06-14T02:44:23;97494.69;;;27.29;19.49
77212;BME280;66206;0.000;0.000;2023-06-14T02:46:45;97493.78;;;27.24;19.42
77212;BME280;66206;0.000;0.000;2023-06-14T02:49:11;97497.65;;;27.34;19.47
77212;BME280;66206;0.000;0.000;2023-06-14T02:51:38;97497.86;;;27.41;19.42
77212;BME280;66206;0.000;0.000;2023-06-14T02:54:05;97499.22;;;27.36;19.33
77212;BME280;66206;0.000;0.000;2023-06-14T02:56:31;97503.41;;;27.32;19.45
77212;BME280;66206;0.000;0.000;2023-06-14T02:58:58;97505.08;;;27.41;19.39
77212;BME280;66206;0.000;0.000;2023-06-14T03:01:25;97509.08;;;27.43;19.43
77212;BME280;66206;0.000;0.000;2023-06-14T03:03:51;97512.64;;;27.38;19.40
77212;BME280;66206;0.000;0.000;2023-06-14T03:06:18;97514.81;;;27.46;19.41
77212;BME280;66206;0.000;0.000;2023-06-14T03:08:44;97512.97;;;27.46;19.40
77212;BME280;66206;0.000;0.000;2023-06-14T03:11:11;97515.01;;;27.43;19.43
77212;BME280;66206;0.000;0.000;2023-06-14T03:13:38;97515.57;;;27.34;19.43
77212;BME280;66206;0.000;0.000;2023-06-14T03:16:04;97515.12;;;27.44;19.38
77212;BME280;66206;0.000;0.000;2023-06-14T03:18:31;97517.64;;;27.39;19.44
77212;BME280;66206;0.000;0.000;2023-06-14T03:20:58;97522.01;;;27.36;19.40
77212;BME280;66206;0.000;0.000;2023-06-14T03:23:24;97523.24;;;27.38;19.45
77212;BME280;66206;0.000;0.000;2023-06-14T03:25:51;97525.98;;;27.28;19.48
77212;BME280;66206;0.000;0.000;2023-06-14T03:28:17;97528.91;;;27.39;19.50
77212;BME280;66206;0.000;0.000;2023-06-14T03:30:44;97533.51;;;27.26;19.50
77212;BME280;66206;0.000;0.000;2023-06-14T03:33:11;97535.65;;;27.14;19.99
77212;BME280;66206;0.000;0.000;2023-06-14T03:35:37;97537.26;;;26.93;20.18
77212;BME280;66206;0.000;0.000;2023-06-14T03:38:04;97537.55;;;26.79;20.37
77212;BME280;66206;0.000;0.000;2023-06-14T03:40:30;97538.76;;;26.75;20.31
77212;BME280;66206;0.000;0.000;2023-06-14T03:42:57;97541.24;;;27.01;20.13
77212;BME280;66206;0.000;0.000;2023-06-14T03:45:24;97542.17;;;26.97;20.15
77212;BME280;66206;0.000;0.000;2023-06-14T03:47:50;97544.87;;;27.17;19.99
77212;BME280;66206;0.000;0.000;2023-06-14T03:50:17;97548.73;;;27.23;19.90
77212;BME280;66206;0.000;0.000;2023-06-14T03:52:44;97551.28;;;27.01;20.02
77212;BME280;66206;0.000;0.000;2023-06-14T03:55:10;97552.97;;;27.17;19.90
77212;BME280;66206;0.000;0.000;2023-06-14T03:57:37;97558.36;;;26.92;20.09
77212;BME280;66206;0.000;0.000;2023-06-14T04:00:04;97560.05;;;26.88;20.04
77212;BME280;66206;0.000;0.000;2023-06-14T04:02:30;97563.22;;;27.13;19.95
77212;BME280;66206;0.000;0.000;2023-06-14T04:04:57;97569.13;;;27.06;20.02
77212;BME280;66206;0.000;0.000;2023-06-14T04:07:24;97570.04;;;27.01;19.94
77212;BME280;66206;0.000;0.000;2023-06-14T04:09:50;97572.89;;;27.18;19.79
77212;BME280;66206;0.000;0.000;2023-06-14T04:12:17;97572.07;;;26.78;20.09
77212;BME280;66206;0.000;0.000;2023-06-14T04:14:43;97572.62;;;26.99;19.97
77212;BME280;66206;0.000;0.000;2023-06-14T04:17:10;97572.78;;;27.00;19.96
77212;BME280;66206;0.000;0.000;2023-06-14T04:19:37;97575.54;;;26.91;20.02
77212;BME280;66206;0.000;0.000;2023-06-14T04:22:03;97580.51;;;26.81;20.14
77212;BME280;66206;0.000;0.000;2023-06-14T04:24:30;97583.38;;;26.75;20.16
77212;BME280;66206;0.000;0.000;2023-06-14T04:26:57;97580.03;;;26.57;20.25
77212;BME280;66206;0.000;0.000;2023-06-14T04:29:24;97577.99;;;26.66;20.21
77212;BME280;66206;0.000;0.000;2023-06-14T04:31:51;97578.55;;;26.83;20.12
77212;BME280;66206;0.000;0.000;2023-06-14T04:34:17;97580.24;;;26.80;20.20
77212;BME280;66206;0.000;0.000;2023-06-14T04:36:44;97581.22;;;26.90;20.15
77212;BME280;66206;0.000;0.000;2023-06-14T04:39:11;97582.18;;;26.64;20.24
77212;BME280;66206;0.000;0.000;2023-06-14T04:41:37;97586.48;;;26.58;20.33
77212;BME280;66206;0.000;0.000;2023-06-14T04:44:04;97586.21;;;26.84;20.09
77212;BME280;66206;0.000;0.000;2023-06-14T04:46:31;97587.76;;;26.99;20.08
77212;BME280;66206;0.000;0.000;2023-06-14T04:48:57;97588.98;;;26.72;20.20
77212;BME280;66206;0.000;0.000;2023-06-14T04:51:24;97586.37;;;26.65;20.27
77212;BME280;66206;0.000;0.000;2023-06-14T04:53:50;97588.29;;;26.92;20.12
77212;BME280;66206;0.000;0.000;2023-06-14T04:56:17;97592.83;;;26.83;20.15
77212;BME280;66206;0.000;0.000;2023-06-14T04:58:44;97592.55;;;26.79;20.11
77212;BME280;66206;0.000;0.000;2023-06-14T05:01:10;97592.71;;;26.76;20.23
77212;BME280;66206;0.000;0.000;2023-06-14T05:03:37;97594.09;;;26.84;20.20
77212;BME280;66206;0.000;0.000;2023-06-14T05:06:03;97596.84;;;27.04;20.05
77212;BME280;66206;0.000;0.000;2023-06-14T05:08:30;97599.94;;;27.24;19.92
77212;BME280;66206;0.000;0.000;2023-06-14T05:10:57;97602.07;;;27.26;19.90
77212;BME280;66206;0.000;0.000;2023-06-14T05:13:23;97601.01;;;27.23;19.94
77212;BME280;66206;0.000;0.000;2023-06-14T05:15:50;97602.41;;;27.18;19.93
77212;BME280;66206;0.000;0.000;2023-06-14T05:18:16;97601.53;;;27.26;19.94
77212;BME280;66206;0.000;0.000;2023-06-14T05:20:43;97603.91;;;27.29;19.97
77212;BME280;66206;0.000;0.000;2023-06-14T05:23:10;97599.40;;;27.22;20.00
77212;BME280;66206;0.000;0.000;2023-06-14T05:25:36;97603.11;;;27.31;19.97
77212;BME280;66206;0.000;0.000;2023-06-14T05:28:03;97608.76;;;27.26;20.08
77212;BME280;66206;0.000;0.000;2023-06-14T05:30:29;97612.79;;;27.18;20.19
77212;BME280;66206;0.000;0.000;2023-06-14T05:32:56;97613.24;;;27.19;20.15
77212;BME280;66206;0.000;0.000;2023-06-14T05:35:23;97615.79;;;27.20;20.19
77212;BME280;66206;0.000;0.000;2023-06-14T05:37:49;97617.02;;;26.81;20.61
77212;BME280;66206;0.000;0.000;2023-06-14T05:40:16;97614.82;;;26.86;20.57
77212;BME280;66206;0.000;0.000;2023-06-14T05:42:42;97617.29;;;27.08;20.53
77212;BME280;66206;0.000;0.000;2023-06-14T05:45:09;97620.23;;;27.15;20.57
77212;BME280;66206;0.000;0.000;2023-06-14T05:47:36;97621.23;;;26.84;20.84
77212;BME280;66206;0.000;0.000;2023-06-14T05:50:03;97621.76;;;26.72;20.87
77212;BME280;66206;0.000;0.000;2023-06-14T05:52:29;97623.82;;;27.09;20.61
77212;BME280;66206;0.000;0.000;2023-06-14T05:54:56;97625.37;;;27.12;20.61
77212;BME280;66206;0.000;0.000;2023-06-14T05:57:23;97621.60;;;26.89;20.94
77212;BME280;66206;0.000;0.000;2023-06-14T05:59:49;97620.98;;;26.84;21.33
77212;BME280;66206;0.000;0.000;2023-06-14T06:02:16;97623.19;;;26.91;21.38
77212;BME280;66206;0.000;0.000;2023-06-14T06:04:42;97626.91;;;26.78;21.41
77212;BME280;66206;0.000;0.000;2023-06-14T06:07:09;97630.21;;;26.94;21.42
77212;BME280;66206;0.000;0.000;2023-06-14T06:09:36;97629.78;;;26.94;21.36
77212;BME280;66206;0.000;0.000;2023-06-14T06:12:02;97630.90;;;26.62;21.60
77212;BME280;66206;0.000;0.000;2023-06-14T06:14:29;97629.79;;;26.62;21.66
77212;BME280;66206;0.000;0.000;2023-06-14T06:16:56;97626.03;;;26.74;21.59
77212;BME280;66206;0.000;0.000;2023-06-14T06:19:22;97627.45;;;26.88;21.52
77212;BME280;66206;0.000;0.000;2023-06-14T06:21:49;97629.38;;;26.97;21.46
77212;BME280;66206;0.000;0.000;2023-06-14T06:24:15;97631.36;;;26.78;21.62
77212;BME280;66206;0.000;0.000;2023-06-14T06:26:42;97632.39;;;26.91;21.71
77212;BME280;66206;0.000;0.000;2023-06-14T06:29:09;97638.64;;;26.98;21.67
77212;BME280;66206;0.000;0.000;2023-06-14T06:31:35;97635.75;;;26.97;21.60
77212;BME280;66206;0.000;0.000;2023-06-14T06:34:02;97638.09;;;26.94;21.60
77212;BME280;66206;0.000;0.000;2023-06-14T06:36:29;97641.21;;;26.97;21.59
77212;BME280;66206;0.000;0.000;2023-06-14T06:38:55;97642.82;;;26.75;21.77
77212;BME280;66206;0.000;0.000;2023-06-14T06:41:22;97645.92;;;27.06;21.59
77212;BME280;66206;0.000;0.000;2023-06-14T06:43:49;97646.63;;;26.92;21.73
77212;BME280;66206;0.000;0.000;2023-06-14T06:46:15;97651.81;;;27.05;21.64
77212;BME280;66206;0.000;0.000;2023-06-14T06:48:42;97649.22;;;26.84;21.78
77212;BME280;66206;0.000;0.000;2023-06-14T06:51:08;97651.03;;;26.81;21.82
